Fort Lauderdale, FL (33312)

10:50 AM EST on November 22, 2014 (GMT -0500)
Lakeview Estates | Change Station
CLOSE
Current Station
Personal Weather Station
Location: Plantation, FL
Elevation: 15 ft
Nearby Weather Stations

Elev 15 ft 26.10 °N, 80.23 °W | Updated 18 seconds ago

Overcast
Overcast
77.2 °F
Feels Like 79 °F
N
14.0
Wind Variable Wind from East
Gusts 16.0 mph

Today
High -- | Low -- °F
--% Chance of Precip.
Yesterday
High -- | Low -- °F
Precip. -- in
6:44 AM 5:29 PM
New Moon, 0% visible
Pressure 30.18 in
Visibility 10.0 miles
Clouds Scattered Clouds 2600 ft
Mostly Cloudy 3800 ft
Overcast 4700 ft
Heat Index 79 °F
Dew Point 65 °F
Humidity 66%
Rainfall 0.05 in
Snow Depth Not available.
UV 1 out of 12
Pollen 4.30 out of 12
Air Quality Not available.
Flu Activity Not available.
METAR KFLL 221453Z 09021G28KT 10SM SCT026 BKN038 OVC047 26/21 A3018 RMK AO2 PK WND 08028/1449 SLP219 60000 T02560206 53009

More Conditions Fewer Conditions

Pressure 30.18 in
Visibility 10.0 miles
Clouds Scattered Clouds 2600 ft
Mostly Cloudy 3800 ft
Overcast 4700 ft
Heat Index 79 °F
Dew Point 65 °F
Humidity 66%
Rainfall 0.05 in
Snow Depth Not available.
UV 1 out of 12
Pollen 4.30 out of 12
Air Quality Not available.
Flu Activity Not available.
METAR KFLL 221453Z 09021G28KT 10SM SCT026 BKN038 OVC047 26/21 A3018 RMK AO2 PK WND 08028/1449 SLP219 60000 T02560206 53009

More Conditions Fewer Conditions

10-Day Weather Forecast

Almanac

Astronomy

Nov. 22, 2014 Rise Set
Actual Time
Civil Twilight
Nautical Twilight
Astronomical Twilight
Moon
Length of Visible Light
Length of Day
Tomorrow will be .
, % of the Moon is Illuminated

Today's Extremes

State Highs State Lows

Community

WunderPhotos

Upload Photos

1,772,837 photos uploaded!

WunderBlogs® & News

Nearby

Air Quality

  Air Quality AQ Index Pollutant
Not available.

Snow Depth

Station Depth Elevation

Earthquake Activity

City Distance Mag. Time & Date
Minimum magnitude displayed is 2.5.

Coastal Water Temperatures

Place Temperature

Nearby Weather Stations